Time;durP1;ratioP1;P1;durP2;ratioP2;P2;SDS_P1;SDS_P2;PMS_P1;PMS_P2;Temp;Humidity;BMP_temperature;BMP_pressure;BME280_temperature;BME280_humidity;BME280_pressure;Samples;Min_cycle;Max_cycle;Signal;HPM_P1;HPM_P2
2021/07/29 00:00:32;;;;;;;4.10;0.70;;;;;;;17.29;61.72;99732.03;5132510;27;20496;-55
2021/07/29 00:02:59;;;;;;;2.47;0.70;;;;;;;17.29;61.92;99732.03;5132699;27;20617;-55
2021/07/29 00:05:26;;;;;;;3.53;0.82;;;;;;;17.34;61.76;99734.09;5123190;27;20019;-55
2021/07/29 00:07:52;;;;;;;3.63;0.65;;;;;;;17.37;61.47;99736.34;5152038;27;20031;-55
2021/07/29 00:10:19;;;;;;;2.08;0.60;;;;;;;17.38;61.60;99731.81;5151993;27;20400;-55
2021/07/29 00:12:45;;;;;;;3.10;0.90;;;;;;;17.38;61.56;99735.31;5151791;27;20392;-55
2021/07/29 00:15:13;;;;;;;2.08;0.77;;;;;;;17.31;61.66;99737.19;5140391;27;20031;-56
2021/07/29 00:20:16;;;;;;;3.08;0.65;;;;;;;17.39;61.51;99730.81;5135318;27;20105;-55
2021/07/29 00:22:43;;;;;;;5.38;1.00;;;;;;;17.39;61.27;99723.59;5142909;27;20038;-55
2021/07/29 00:25:13;;;;;;;2.15;0.70;;;;;;;17.37;61.36;99733.69;5132403;27;20031;-55
2021/07/29 00:27:42;;;;;;;3.22;0.60;;;;;;;17.45;61.12;99733.47;5133600;27;20869;-55
2021/07/29 00:30:11;;;;;;;4.57;0.70;;;;;;;17.43;61.22;99724.84;5132042;27;20031;-55
2021/07/29 00:32:38;;;;;;;7.22;0.70;;;;;;;17.50;60.67;99724.00;5145337;27;20030;-55
2021/07/29 00:35:06;;;;;;;2.75;0.50;;;;;;;17.50;60.90;99729.34;5113932;27;20027;-55
2021/07/29 00:37:36;;;;;;;5.85;0.63;;;;;;;17.50;60.84;99724.81;5135177;27;20023;-55
2021/07/29 00:40:03;;;;;;;3.63;0.80;;;;;;;17.52;60.54;99730.75;5131796;27;20089;-55
2021/07/29 00:42:29;;;;;;;2.88;0.50;;;;;;;17.54;60.45;99726.03;5132032;27;20042;-55
2021/07/29 00:44:55;;;;;;;2.47;0.63;;;;;;;17.57;60.62;99733.63;5113325;27;20080;-55
2021/07/29 00:47:21;;;;;;;2.97;0.50;;;;;;;17.51;60.39;99729.13;5131824;27;20171;-55
2021/07/29 00:49:47;;;;;;;2.88;0.93;;;;;;;17.49;60.48;99731.19;5130245;27;20049;-55
2021/07/29 00:52:14;;;;;;;2.53;0.80;;;;;;;17.45;60.74;99729.97;5150683;27;20073;-56
2021/07/29 00:54:40;;;;;;;3.53;0.60;;;;;;;17.51;60.53;99728.31;5150823;27;20115;-56
2021/07/29 00:57:08;;;;;;;3.20;0.60;;;;;;;17.57;60.42;99727.47;5115655;27;20382;-55
2021/07/29 00:59:35;;;;;;;2.25;0.52;;;;;;;17.59;60.26;99728.09;5146623;27;20480;-55
2021/07/29 01:02:00;;;;;;;1.55;0.50;;;;;;;17.61;59.92;99716.16;5150514;27;20022;-55
2021/07/29 01:04:26;;;;;;;1.40;0.40;;;;;;;17.64;60.10;99727.47;5150731;27;20122;-55
2021/07/29 01:06:52;;;;;;;3.63;0.70;;;;;;;17.62;60.01;99714.31;5132755;27;20019;-55
2021/07/29 01:09:18;;;;;;;1.85;0.60;;;;;;;17.64;60.07;99714.09;5112951;27;20046;-55
2021/07/29 01:11:44;;;;;;;3.13;0.80;;;;;;;17.61;60.12;99715.34;5131440;27;20039;-56
2021/07/29 01:14:11;;;;;;;3.05;0.52;;;;;;;17.63;59.80;99712.47;5112837;28;20039;-55
2021/07/29 01:16:37;;;;;;;2.30;0.60;;;;;;;17.60;59.74;99717.19;5150147;27;20659;-55
2021/07/29 01:19:05;;;;;;;1.58;0.60;;;;;;;17.53;60.02;99720.91;5140576;27;20096;-56
2021/07/29 01:21:32;;;;;;;5.93;0.80;;;;;;;17.54;59.91;99715.34;5112627;27;20039;-55
2021/07/29 01:23:58;;;;;;;2.50;0.52;;;;;;;17.57;59.62;99717.59;5131288;27;20031;-56
2021/07/29 01:26:26;;;;;;;2.38;0.60;;;;;;;17.55;59.77;99722.34;5150903;27;20022;-55
2021/07/29 01:29:00;;;;;;;1.42;0.50;;;;;;;17.58;59.76;99721.91;5131159;27;20280;-55
2021/07/29 01:31:27;;;;;;;4.18;0.65;;;;;;;17.54;59.69;99720.69;5112744;27;20027;-55
2021/07/29 01:33:54;;;;;;;3.25;0.70;;;;;;;17.59;59.53;99718.22;5134808;27;20039;-55
2021/07/29 01:36:20;;;;;;;1.33;0.65;;;;;;;17.51;59.85;99721.13;5163874;27;20505;-55
2021/07/29 01:38:46;;;;;;;1.80;0.60;;;;;;;17.52;59.75;99719.28;5151060;27;20031;-55
2021/07/29 01:41:12;;;;;;;3.20;0.60;;;;;;;17.51;59.62;99725.63;5158027;27;20029;-54
2021/07/29 01:43:37;;;;;;;1.15;0.70;;;;;;;17.48;59.90;99726.88;5137608;27;20492;-54
2021/07/29 01:46:03;;;;;;;4.90;0.93;;;;;;;17.53;59.38;99731.59;5173272;27;20022;-55
2021/07/29 01:48:31;;;;;;;5.10;0.68;;;;;;;17.53;59.44;99726.25;5173525;27;20065;-55
2021/07/29 01:50:57;;;;;;;2.92;0.70;;;;;;;17.50;59.62;99721.31;5173139;27;20099;-56
2021/07/29 01:53:23;;;;;;;4.15;0.70;;;;;;;17.46;59.57;99728.94;5160265;27;20039;-56
2021/07/29 01:55:49;;;;;;;1.58;0.50;;;;;;;17.39;59.85;99725.47;5119869;27;20469;-55
2021/07/29 01:58:16;;;;;;;6.60;0.80;;;;;;;17.43;59.74;99730.19;5149483;27;20039;-55
2021/07/29 02:00:44;;;;;;;3.60;0.70;;;;;;;17.41;59.77;99726.06;5144188;27;20031;-55
2021/07/29 02:03:10;;;;;;;4.63;0.80;;;;;;;17.38;59.75;99729.97;5132215;27;20041;-56
2021/07/29 02:05:35;;;;;;;1.75;0.70;;;;;;;17.48;59.55;99737.56;5131748;28;20028;-56
2021/07/29 02:08:01;;;;;;;3.55;0.60;;;;;;;17.52;59.43;99737.97;5131630;28;20474;-56
2021/07/29 02:10:27;;;;;;;5.13;0.75;;;;;;;17.51;59.46;99739.00;5131593;28;20066;-56
2021/07/29 02:12:54;;;;;;;2.28;0.70;;;;;;;17.42;59.45;99736.56;5115584;28;20027;-55
2021/07/29 02:15:20;;;;;;;5.50;0.90;;;;;;;17.27;59.71;99735.94;5131570;28;20114;-55
2021/07/29 02:17:46;;;;;;;3.40;0.75;;;;;;;17.29;59.62;99734.72;5113283;28;20477;-54
2021/07/29 02:20:13;;;;;;;5.32;1.15;;;;;;;17.21;59.64;99738.41;5152095;27;20442;-55
2021/07/29 02:22:39;;;;;;;3.05;0.55;;;;;;;17.20;59.61;99731.41;5152189;27;20034;-55
2021/07/29 02:25:05;;;;;;;3.97;0.60;;;;;;;17.13;59.64;99730.59;5152425;27;20381;-55
2021/07/29 02:27:32;;;;;;;3.97;0.70;;;;;;;17.17;59.51;99733.69;5151535;27;20058;-54
2021/07/29 02:29:58;;;;;;;5.85;0.85;;;;;;;17.18;59.19;99733.50;5161938;27;20031;-54
2021/07/29 02:32:24;;;;;;;5.13;0.70;;;;;;;17.20;59.02;99734.09;5155927;27;20086;-55
2021/07/29 02:34:52;;;;;;;4.00;0.98;;;;;;;17.19;58.86;99729.78;5156162;27;20446;-55
2021/07/29 02:37:21;;;;;;;4.63;0.70;;;;;;;17.16;58.71;99732.03;5155728;27;20030;-55
2021/07/29 02:39:47;;;;;;;3.85;1.00;;;;;;;17.08;58.60;99733.88;5155684;27;20507;-55
2021/07/29 02:42:13;;;;;;;3.20;0.60;;;;;;;16.97;58.92;99732.63;5155683;27;20042;-55
2021/07/29 02:44:39;;;;;;;2.65;0.85;;;;;;;17.06;59.00;99732.41;5155747;27;20040;-55
2021/07/29 02:47:05;;;;;;;4.60;0.82;;;;;;;16.96;58.61;99732.84;5155627;27;20625;-55
2021/07/29 02:49:31;;;;;;;2.90;0.57;;;;;;;16.83;59.03;99734.44;5155771;27;20405;-55
2021/07/29 02:51:56;;;;;;;4.50;0.90;;;;;;;16.83;58.81;99728.31;5155464;27;20054;-55
2021/07/29 02:54:22;;;;;;;6.45;1.10;;;;;;;16.67;59.26;99725.00;5155336;27;20042;-54
2021/07/29 02:56:48;;;;;;;3.33;0.90;;;;;;;16.66;59.35;99728.66;5137062;27;20034;-55
2021/07/29 02:59:13;;;;;;;2.70;0.70;;;;;;;16.73;59.03;99726.84;5137043;27;20480;-55
2021/07/29 03:01:39;;;;;;;2.80;0.70;;;;;;;16.68;59.25;99729.31;5155362;27;20023;-55
2021/07/29 03:04:05;;;;;;;6.00;0.77;;;;;;;16.73;59.32;99734.03;5147411;27;20139;-55
2021/07/29 03:06:31;;;;;;;6.90;0.82;;;;;;;16.85;59.14;99742.28;5145320;27;20232;-55
2021/07/29 03:08:59;;;;;;;3.70;0.52;;;;;;;16.87;58.93;99732.19;5142136;27;20027;-55
2021/07/29 03:11:24;;;;;;;4.57;0.70;;;;;;;16.94;59.00;99730.38;5136507;27;20038;-55
2021/07/29 03:13:50;;;;;;;6.03;1.38;;;;;;;16.97;58.96;99731.78;5142386;27;20042;-56
2021/07/29 03:16:16;;;;;;;2.80;0.52;;;;;;;17.01;58.66;99737.56;5134241;27;20039;-55
2021/07/29 03:18:41;;;;;;;4.15;0.80;;;;;;;17.05;58.93;99730.78;5134233;27;20043;-55
2021/07/29 03:21:08;;;;;;;5.15;0.90;;;;;;;17.06;58.80;99732.41;5136470;27;20035;-55
2021/07/29 03:23:34;;;;;;;2.20;0.47;;;;;;;17.06;58.50;99729.72;5154846;27;20035;-55
2021/07/29 03:26:00;;;;;;;2.40;0.77;;;;;;;17.03;58.38;99730.97;5154853;27;20030;-55
2021/07/29 03:28:26;;;;;;;4.32;0.63;;;;;;;17.04;58.57;99729.94;5155017;27;20038;-55
2021/07/29 03:30:54;;;;;;;1.20;0.60;;;;;;;17.06;58.39;99727.91;5154790;27;20035;-55
2021/07/29 03:33:21;;;;;;;6.63;0.70;;;;;;;17.09;58.41;99729.34;5154572;27;20033;-56
2021/07/29 03:35:47;;;;;;;2.15;0.60;;;;;;;17.06;58.32;99721.72;5154653;27;20038;-55
2021/07/29 03:38:13;;;;;;;4.18;0.75;;;;;;;17.04;58.29;99718.47;5151854;27;20401;-55
2021/07/29 03:40:41;;;;;;;2.53;0.88;;;;;;;17.00;58.22;99723.38;5133572;27;20098;-55
2021/07/29 03:43:07;;;;;;;2.90;0.60;;;;;;;17.04;58.39;99723.81;5134043;27;20027;-55
2021/07/29 03:45:35;;;;;;;3.88;0.90;;;;;;;17.02;58.00;99723.16;5133790;27;20027;-55
2021/07/29 03:48:01;;;;;;;2.55;0.80;;;;;;;16.91;58.04;99721.94;5133731;27;20027;-55
2021/07/29 03:50:27;;;;;;;4.53;0.73;;;;;;;16.88;58.26;99722.34;5133371;27;20489;-54
2021/07/29 03:52:53;;;;;;;7.40;0.70;;;;;;;16.93;58.26;99733.25;5133552;27;20023;-55
2021/07/29 03:55:19;;;;;;;10.27;0.93;;;;;;;16.95;58.23;99728.50;5133670;27;20542;-55
2021/07/29 03:57:44;;;;;;;2.38;0.75;;;;;;;16.92;58.08;99737.75;5133532;27;20038;-55
2021/07/29 04:00:11;;;;;;;3.90;0.80;;;;;;;16.78;58.15;99744.09;5133466;27;20405;-55
2021/07/29 04:02:37;;;;;;;3.90;0.73;;;;;;;16.74;58.36;99741.00;5133398;27;20533;-55
2021/07/29 04:05:03;;;;;;;7.45;0.60;;;;;;;16.66;58.50;99735.88;5133311;27;20038;-55
2021/07/29 04:07:29;;;;;;;6.50;1.00;;;;;;;16.71;58.27;99744.06;5133292;27;20039;-55
2021/07/29 04:09:55;;;;;;;2.65;0.85;;;;;;;16.77;58.47;99735.25;5133303;27;20105;-55
2021/07/29 04:12:21;;;;;;;2.78;0.70;;;;;;;16.80;58.24;99737.50;5133091;27;20062;-55
2021/07/29 04:14:47;;;;;;;3.88;0.82;;;;;;;16.75;58.10;99737.31;5133504;27;20039;-55
2021/07/29 04:17:13;;;;;;;4.03;0.80;;;;;;;16.72;58.22;99741.19;5133190;27;20415;-56
2021/07/29 04:19:39;;;;;;;1.73;0.50;;;;;;;16.82;58.10;99743.47;5133107;27;20080;-55
2021/07/29 04:22:06;;;;;;;3.00;0.70;;;;;;;16.81;58.34;99749.03;5133021;27;20027;-55
2021/07/29 04:24:32;;;;;;;2.78;0.70;;;;;;;16.83;58.17;99746.97;5132977;27;20034;-55
2021/07/29 04:26:59;;;;;;;3.15;0.77;;;;;;;16.86;58.22;99750.06;5114711;27;20038;-55
2021/07/29 04:29:31;;;;;;;2.58;0.70;;;;;;;16.91;58.33;99749.47;5132868;27;20485;-55
2021/07/29 04:32:15;;;;;;;3.85;1.15;;;;;;;16.83;58.04;99749.66;5109688;28;20073;-55
2021/07/29 04:34:41;;;;;;;2.92;0.77;;;;;;;16.70;58.47;99759.28;5092699;28;20052;-55
2021/07/29 04:37:08;;;;;;;2.53;0.80;;;;;;;16.56;58.37;99746.94;5092704;28;20409;-55
2021/07/29 04:39:35;;;;;;;2.97;0.93;;;;;;;16.33;59.26;99748.91;5092820;28;20038;-55
2021/07/29 04:42:01;;;;;;;1.23;0.50;;;;;;;16.34;59.40;99749.75;5109638;28;20513;-55
2021/07/29 04:44:27;;;;;;;2.00;0.60;;;;;;;16.38;59.32;99745.63;5109519;28;20039;-55
2021/07/29 04:46:53;;;;;;;2.17;0.70;;;;;;;16.48;59.30;99746.06;5109675;28;20509;-55
2021/07/29 04:49:20;;;;;;;7.70;0.93;;;;;;;16.47;59.12;99746.28;5109501;28;20040;-54
2021/07/29 04:51:47;;;;;;;2.03;0.70;;;;;;;16.20;59.88;99739.00;5108384;28;20055;-55
2021/07/29 04:54:14;;;;;;;4.60;0.88;;;;;;;16.06;60.28;99739.97;5109345;28;20497;-56
2021/07/29 04:56:39;;;;;;;2.55;1.10;;;;;;;16.07;60.28;99739.78;5109500;28;20138;-55
2021/07/29 04:59:05;;;;;;;3.55;0.93;;;;;;;16.21;60.02;99740.63;5109373;28;20054;-55
2021/07/29 05:01:31;;;;;;;5.53;1.40;;;;;;;16.23;60.05;99745.78;5109391;28;20040;-55
2021/07/29 05:04:02;;;;;;;3.67;0.90;;;;;;;16.17;59.81;99747.41;5128930;27;20035;-55
2021/07/29 05:06:28;;;;;;;2.70;0.52;;;;;;;16.23;59.93;99746.59;5143510;27;20478;-55
2021/07/29 05:08:54;;;;;;;3.20;0.85;;;;;;;16.27;59.49;99741.72;5137339;27;20038;-55
2021/07/29 05:11:19;;;;;;;4.70;0.80;;;;;;;16.32;59.49;99749.09;5134419;27;20042;-54
2021/07/29 05:13:45;;;;;;;5.05;1.17;;;;;;;16.45;59.50;99757.13;5142538;27;20043;-54
2021/07/29 05:16:11;;;;;;;1.73;0.60;;;;;;;16.56;59.15;99752.25;5132799;28;20556;-55
2021/07/29 05:18:36;;;;;;;2.83;1.08;;;;;;;16.65;58.95;99756.38;5132205;28;20084;-55
2021/07/29 05:21:03;;;;;;;1.98;0.43;;;;;;;16.71;58.96;99760.09;5132146;28;20035;-55
2021/07/29 05:23:29;;;;;;;3.30;0.70;;;;;;;16.73;58.76;99761.53;5133947;27;20083;-55
2021/07/29 05:25:55;;;;;;;4.95;0.60;;;;;;;16.79;58.47;99757.22;5148567;27;20023;-55
2021/07/29 05:28:21;;;;;;;2.17;0.60;;;;;;;16.75;58.55;99761.34;5113835;28;20027;-55
2021/07/29 05:30:46;;;;;;;2.25;0.82;;;;;;;16.77;58.58;99769.16;5113685;28;20504;-55
2021/07/29 05:33:12;;;;;;;4.88;0.80;;;;;;;16.80;58.53;99769.53;5131966;28;20031;-55
2021/07/29 05:35:38;;;;;;;3.08;0.80;;;;;;;16.83;58.37;99768.34;5132320;28;20031;-55
2021/07/29 05:38:04;;;;;;;1.70;0.60;;;;;;;16.83;58.25;99771.81;5132021;28;20066;-54
2021/07/29 05:40:29;;;;;;;2.58;0.90;;;;;;;16.78;58.62;99776.13;5151802;27;20117;-54
2021/07/29 05:42:55;;;;;;;1.63;1.10;;;;;;;16.85;58.15;99774.31;5134135;27;20042;-54
2021/07/29 05:45:21;;;;;;;5.03;0.60;;;;;;;16.88;58.34;99767.72;5134552;27;20038;-55
2021/07/29 05:47:47;;;;;;;2.80;0.65;;;;;;;16.91;58.23;99778.00;5152699;27;20050;-54
2021/07/29 05:50:13;;;;;;;2.15;0.50;;;;;;;16.89;58.23;99766.69;5152628;27;20023;-54
2021/07/29 05:52:38;;;;;;;3.90;0.70;;;;;;;16.91;58.25;99775.31;5152191;27;20066;-54
2021/07/29 05:55:05;;;;;;;3.08;0.63;;;;;;;16.92;58.36;99774.28;5152784;27;20102;-55
2021/07/29 05:57:34;;;;;;;2.83;0.60;;;;;;;16.93;58.43;99782.09;5152713;27;20080;-54
2021/07/29 06:00:00;;;;;;;2.05;0.57;;;;;;;16.91;58.49;99778.00;5152504;27;20034;-55
2021/07/29 06:02:26;;;;;;;2.08;0.80;;;;;;;16.95;58.32;99777.38;5154079;27;20389;-55
2021/07/29 06:04:52;;;;;;;3.63;0.70;;;;;;;16.93;58.89;99770.63;5146396;27;20069;-55
2021/07/29 06:07:18;;;;;;;2.65;0.85;;;;;;;16.93;58.82;99775.94;5144681;27;20513;-54
2021/07/29 06:09:44;;;;;;;3.78;0.60;;;;;;;16.91;59.38;99778.00;5129557;27;20030;-55
2021/07/29 06:12:11;;;;;;;3.17;0.85;;;;;;;16.91;59.48;99772.66;5156392;27;20031;-55
2021/07/29 06:14:36;;;;;;;3.90;0.90;;;;;;;16.87;59.74;99782.91;5138799;27;20092;-55
2021/07/29 06:17:02;;;;;;;3.78;0.73;;;;;;;16.89;59.75;99783.53;5117272;27;20042;-55
2021/07/29 06:19:29;;;;;;;2.78;0.70;;;;;;;16.87;59.81;99788.25;5135369;27;20035;-55
2021/07/29 06:21:58;;;;;;;2.05;0.60;;;;;;;16.85;60.10;99787.66;5142512;27;20038;-54
2021/07/29 06:24:27;;;;;;;3.50;1.20;;;;;;;16.90;59.45;99784.38;5156106;27;20145;-55
2021/07/29 06:26:54;;;;;;;4.18;0.65;;;;;;;16.95;59.38;99785.38;5156000;27;20038;-55
2021/07/29 06:29:20;;;;;;;4.72;0.85;;;;;;;16.99;59.11;99780.47;5156027;27;20031;-55
2021/07/29 06:31:46;;;;;;;2.08;0.70;;;;;;;17.00;59.04;99792.78;5155908;27;20025;-54
2021/07/29 06:34:11;;;;;;;4.88;0.70;;;;;;;16.99;59.21;99797.28;5137319;27;20039;-55
2021/07/29 06:36:37;;;;;;;1.20;0.55;;;;;;;17.03;59.43;99802.22;5155880;27;20493;-55
2021/07/29 06:39:03;;;;;;;3.65;0.70;;;;;;;16.95;60.16;99800.56;5147985;27;20035;-55
2021/07/29 06:41:29;;;;;;;4.07;0.85;;;;;;;16.92;60.33;99796.47;5135043;27;20035;-54
2021/07/29 06:43:55;;;;;;;6.13;1.05;;;;;;;16.95;60.39;99797.91;5135025;27;20035;-54
2021/07/29 06:46:21;;;;;;;2.83;0.88;;;;;;;16.91;60.71;99794.00;5134975;27;20039;-54
2021/07/29 06:48:48;;;;;;;4.78;1.00;;;;;;;16.95;60.59;99797.91;5134916;27;20035;-54
2021/07/29 06:51:14;;;;;;;3.60;0.70;;;;;;;16.93;60.88;99797.31;5134667;27;20043;-55
2021/07/29 06:53:39;;;;;;;2.65;0.80;;;;;;;16.92;60.81;99799.16;5134741;27;20400;-54
2021/07/29 06:56:06;;;;;;;2.75;1.02;;;;;;;16.82;61.64;99799.53;5134746;27;20039;-54
2021/07/29 06:58:32;;;;;;;5.18;0.88;;;;;;;16.85;61.63;99803.66;5134636;27;20035;-54
2021/07/29 07:01:05;;;;;;;4.72;0.82;;;;;;;16.79;62.07;99805.25;5134716;27;20039;-54
2021/07/29 07:03:31;;;;;;;3.15;0.60;;;;;;;16.86;61.79;99803.47;5134567;27;20140;-55
2021/07/29 07:06:04;;;;;;;3.47;0.85;;;;;;;16.90;61.57;99805.72;5116182;27;20122;-54
2021/07/29 07:08:30;;;;;;;2.78;0.77;;;;;;;16.94;61.15;99812.28;5134692;27;20030;-54
2021/07/29 07:10:57;;;;;;;3.45;1.10;;;;;;;16.96;61.32;99811.03;5134498;27;20035;-55
2021/07/29 07:13:22;;;;;;;2.28;0.70;;;;;;;16.95;61.33;99808.59;5142930;27;20404;-54
2021/07/29 07:15:48;;;;;;;3.60;0.77;;;;;;;16.97;61.59;99822.56;5155563;27;20392;-54
2021/07/29 07:18:14;;;;;;;3.15;0.90;;;;;;;16.93;61.88;99816.78;5136624;27;20030;-55
2021/07/29 07:20:40;;;;;;;7.03;1.00;;;;;;;16.94;62.03;99812.28;5155211;27;20038;-55
2021/07/29 07:23:06;;;;;;;4.72;1.30;;;;;;;16.98;61.85;99816.19;5155163;27;20092;-55
2021/07/29 07:25:35;;;;;;;2.97;0.90;;;;;;;16.99;61.47;99813.31;5154965;27;20485;-55
2021/07/29 07:28:01;;;;;;;5.47;1.00;;;;;;;16.96;62.31;99815.59;5154914;27;20031;-54
2021/07/29 07:30:26;;;;;;;3.85;0.80;;;;;;;16.96;62.18;99816.38;5136291;27;20057;-54
2021/07/29 07:32:52;;;;;;;4.60;1.33;;;;;;;16.99;61.86;99832.00;5154387;27;20026;-55
2021/07/29 07:35:18;;;;;;;4.28;1.10;;;;;;;16.99;61.62;99818.66;5154351;27;20398;-54
2021/07/29 07:37:43;;;;;;;1.15;0.60;;;;;;;17.05;61.65;99818.88;5154692;27;20042;-54
2021/07/29 07:40:10;;;;;;;4.95;0.90;;;;;;;17.05;61.44;99821.53;5154470;27;20030;-54
2021/07/29 07:42:36;;;;;;;3.35;0.70;;;;;;;17.10;61.18;99819.13;5154541;27;20026;-54
2021/07/29 07:45:02;;;;;;;3.60;1.00;;;;;;;17.03;62.12;99827.09;5135962;27;20103;-54
2021/07/29 07:47:29;;;;;;;3.15;0.80;;;;;;;17.02;61.92;99828.13;5135886;27;20038;-55
2021/07/29 07:49:58;;;;;;;3.17;0.70;;;;;;;17.05;62.02;99827.72;5154442;27;20039;-55
2021/07/29 07:52:24;;;;;;;4.55;0.80;;;;;;;17.03;62.03;99823.59;5154223;27;20038;-54
2021/07/29 07:54:50;;;;;;;4.57;1.00;;;;;;;17.04;62.11;99830.59;5154541;27;20102;-54
2021/07/29 07:57:15;;;;;;;3.30;0.75;;;;;;;17.06;62.04;99820.50;5146369;27;20069;-54
2021/07/29 07:59:41;;;;;;;5.68;1.13;;;;;;;17.06;62.17;99828.53;5152946;27;20047;-54
2021/07/29 08:02:07;;;;;;;4.45;0.88;;;;;;;17.09;61.94;99830.81;5097508;27;20056;-54
2021/07/29 08:04:34;;;;;;;4.13;0.82;;;;;;;17.07;62.37;99839.00;5117688;27;20552;-55
2021/07/29 08:07:00;;;;;;;5.35;1.33;;;;;;;17.07;62.34;99832.84;5147328;27;20113;-54
2021/07/29 08:09:26;;;;;;;2.55;0.77;;;;;;;17.12;62.12;99841.09;5145768;27;20098;-55
2021/07/29 08:11:53;;;;;;;2.80;0.90;;;;;;;17.14;62.21;99838.25;5141770;27;20769;-55
2021/07/29 08:14:18;;;;;;;5.05;1.30;;;;;;;17.07;62.80;99843.53;5145913;27;20049;-55
2021/07/29 08:16:44;;;;;;;3.80;1.27;;;;;;;17.13;62.21;99844.59;5152955;27;20031;-55
2021/07/29 08:19:10;;;;;;;3.40;0.90;;;;;;;17.12;62.69;99849.09;5134821;27;20038;-55
2021/07/29 08:21:36;;;;;;;5.72;1.20;;;;;;;17.04;63.03;99841.28;5153122;27;20393;-55
2021/07/29 08:24:04;;;;;;;4.05;0.93;;;;;;;17.02;63.26;99837.97;5117735;27;20031;-55
2021/07/29 08:26:29;;;;;;;2.58;0.82;;;;;;;16.98;63.28;99842.88;5152759;27;20031;-55
2021/07/29 08:28:57;;;;;;;2.72;0.95;;;;;;;17.04;63.33;99851.94;5152751;27;20370;-54
2021/07/29 08:31:23;;;;;;;6.53;0.85;;;;;;;17.06;63.40;99852.56;5135671;27;20031;-55
2021/07/29 08:33:49;;;;;;;5.88;0.82;;;;;;;17.05;63.41;99853.59;5132506;27;20080;-55
2021/07/29 08:36:17;;;;;;;5.03;1.10;;;;;;;17.03;63.52;99847.63;5143680;27;20047;-55
2021/07/29 08:38:44;;;;;;;6.28;0.95;;;;;;;17.07;63.33;99852.34;5152809;27;20030;-55
2021/07/29 08:41:10;;;;;;;8.02;0.90;;;;;;;17.05;63.31;99843.75;5152934;27;20023;-55
2021/07/29 08:43:37;;;;;;;8.60;1.38;;;;;;;17.03;63.34;99850.28;5149392;27;20030;-56
2021/07/29 08:46:10;;;;;;;4.03;1.02;;;;;;;17.04;63.07;99851.94;5152088;27;20087;-54
2021/07/29 08:48:49;;;;;;;4.47;1.00;;;;;;;17.04;63.23;99844.75;5152793;27;20078;-54
2021/07/29 08:51:23;;;;;;;2.67;0.93;;;;;;;17.03;63.15;99834.25;5152619;27;20043;-55
2021/07/29 08:53:50;;;;;;;8.63;1.27;;;;;;;17.03;62.78;99844.94;5152492;27;20094;-55
2021/07/29 08:56:23;;;;;;;4.60;0.82;;;;;;;16.95;62.61;99837.94;5152325;27;20027;-55
2021/07/29 08:58:49;;;;;;;7.50;0.90;;;;;;;17.00;62.41;99848.84;5152344;27;20037;-54
2021/07/29 09:01:15;;;;;;;5.03;1.05;;;;;;;17.01;62.43;99834.47;5132254;27;20083;-55
2021/07/29 09:03:44;;;;;;;2.75;0.70;;;;;;;16.99;62.46;99842.69;5132002;27;20393;-55
2021/07/29 09:06:12;;;;;;;3.20;0.90;;;;;;;16.96;62.41;99844.94;5134871;27;20512;-55
2021/07/29 09:08:56;;;;;;;5.72;0.93;;;;;;;16.98;62.26;99840.22;5152621;27;20583;-54
2021/07/29 09:11:36;;;;;;;7.20;1.05;;;;;;;16.95;62.42;99836.09;5151838;27;20037;-54
2021/07/29 09:14:18;;;;;;;4.03;0.85;;;;;;;16.97;62.10;99830.56;5152537;27;20802;-54
2021/07/29 09:16:58;;;;;;;3.83;0.95;;;;;;;17.02;62.12;99827.28;5151868;27;20026;-55
2021/07/29 09:19:32;;;;;;;3.83;0.90;;;;;;;17.07;62.15;99830.19;5162244;27;20018;-54
2021/07/29 09:22:05;;;;;;;8.93;1.13;;;;;;;17.11;61.99;99829.59;5159641;27;20062;-55
2021/07/29 09:24:31;;;;;;;3.92;0.85;;;;;;;17.14;61.95;99831.03;5133880;27;20559;-54
2021/07/29 09:26:57;;;;;;;4.35;0.90;;;;;;;17.16;61.73;99833.50;5152076;27;20034;-55
2021/07/29 09:29:25;;;;;;;2.13;0.73;;;;;;;17.14;61.67;99830.22;5152476;27;20373;-55
2021/07/29 09:32:11;;;;;;;8.70;1.05;;;;;;;17.16;61.67;99825.50;5152179;27;20147;-54
2021/07/29 09:34:55;;;;;;;2.13;0.73;;;;;;;17.15;61.50;99827.34;5152098;27;20508;-54
2021/07/29 09:37:21;;;;;;;4.25;0.77;;;;;;;17.17;61.25;99830.63;5153308;27;20514;-55
2021/07/29 09:39:58;;;;;;;2.28;0.70;;;;;;;17.19;60.64;99825.09;5156219;27;20035;-55
2021/07/29 09:42:24;;;;;;;5.43;1.00;;;;;;;17.24;61.14;99825.31;5152300;27;20067;-55
2021/07/29 09:44:52;;;;;;;1.60;0.70;;;;;;;17.22;61.34;99820.16;5155762;27;20169;-55
2021/07/29 09:47:19;;;;;;;3.00;0.80;;;;;;;17.23;61.39;99829.81;5155425;27;20030;-55
2021/07/29 09:49:46;;;;;;;3.60;0.80;;;;;;;17.25;61.31;99831.47;5137220;27;20042;-55
2021/07/29 09:52:12;;;;;;;9.65;0.90;;;;;;;17.26;61.36;99831.28;5155339;27;20413;-55
2021/07/29 09:54:41;;;;;;;1.98;0.75;;;;;;;17.21;60.57;99831.88;5153970;27;20026;-55
2021/07/29 09:57:08;;;;;;;3.03;0.70;;;;;;;17.18;59.60;99826.13;5165969;27;20118;-55
2021/07/29 09:59:34;;;;;;;3.30;0.80;;;;;;;17.16;59.12;99828.16;5137232;27;20396;-55
2021/07/29 10:02:02;;;;;;;5.75;1.10;;;;;;;17.18;59.41;99821.59;5134571;27;20035;-55
2021/07/29 10:04:36;;;;;;;3.83;0.60;;;;;;;17.22;60.21;99822.84;5157712;27;20105;-55
2021/07/29 10:07:06;;;;;;;4.22;0.70;;;;;;;17.23;60.24;99813.00;5167418;27;20461;-55
2021/07/29 10:09:38;;;;;;;3.38;0.80;;;;;;;17.26;60.53;99817.09;5155049;27;20039;-55
2021/07/29 10:12:07;;;;;;;3.88;0.82;;;;;;;17.27;60.27;99811.53;5155223;27;20027;-55
2021/07/29 10:14:53;;;;;;;2.13;0.65;;;;;;;17.29;59.94;99804.16;5136896;27;20561;-54
2021/07/29 10:17:39;;;;;;;4.72;0.90;;;;;;;17.32;60.21;99809.09;5151881;27;20083;-54
2021/07/29 10:20:10;;;;;;;12.95;1.40;;;;;;;17.39;60.00;99798.38;5147426;27;20026;-54
2021/07/29 10:22:36;;;;;;;7.88;0.95;;;;;;;17.45;60.62;99808.28;5151043;27;20027;-53
2021/07/29 10:25:02;;;;;;;6.93;1.42;;;;;;;17.52;60.27;99800.22;5153761;27;20503;-51
2021/07/29 10:27:27;;;;;;;4.53;1.27;;;;;;;17.58;60.36;99801.28;5153140;27;20026;-52
2021/07/29 10:30:14;;;;;;;3.38;0.70;;;;;;;17.61;60.71;99804.34;5153855;27;20034;-52
2021/07/29 10:32:46;;;;;;;2.53;0.70;;;;;;;17.61;60.01;99799.00;5134894;27;20034;-52
2021/07/29 10:35:32;;;;;;;4.93;0.88;;;;;;;17.62;60.12;99797.16;5151942;27;20499;-52
2021/07/29 10:37:58;;;;;;;3.67;0.90;;;;;;;17.66;60.56;99798.38;5134237;27;20071;-53
2021/07/29 10:40:35;;;;;;;3.58;0.85;;;;;;;17.69;60.41;99806.00;5153126;27;20095;-53
2021/07/29 10:43:37;;;;;;;2.85;0.82;;;;;;;17.65;59.37;99807.41;5135743;27;20035;-53
2021/07/29 10:46:03;;;;;;;3.30;0.60;;;;;;;17.63;59.33;99804.13;5038704;28;20447;-52
2021/07/29 10:48:41;;;;;;;3.80;0.70;;;;;;;17.62;59.28;99802.50;5113806;27;20043;-53
2021/07/29 10:51:18;;;;;;;10.35;0.73;;;;;;;17.68;59.85;99812.34;5132507;27;20047;-52
2021/07/29 10:53:47;;;;;;;5.50;0.60;;;;;;;17.67;58.48;99813.38;5133999;27;20039;-52
2021/07/29 10:56:15;;;;;;;2.92;0.60;;;;;;;17.62;57.66;99807.84;5133093;27;20043;-52
2021/07/29 10:58:52;;;;;;;2.67;0.63;;;;;;;17.63;58.47;99804.13;5133360;27;20058;-53
2021/07/29 11:01:19;;;;;;;5.47;0.70;;;;;;;17.67;58.98;99796.53;5132173;27;20045;-53
2021/07/29 11:04:07;;;;;;;4.68;0.65;;;;;;;17.67;58.67;99797.34;5101371;27;20515;-53
2021/07/29 11:06:37;;;;;;;4.30;0.70;;;;;;;17.74;59.51;99797.34;5123925;27;20039;-53
2021/07/29 11:09:14;;;;;;;7.50;0.82;;;;;;;17.78;59.40;99801.25;5133224;27;20019;-53
2021/07/29 11:11:43;;;;;;;2.72;0.65;;;;;;;17.81;59.80;99805.34;5133508;27;20070;-54
2021/07/29 11:14:10;;;;;;;3.92;0.70;;;;;;;17.83;59.99;99801.44;5119371;27;20399;-54
2021/07/29 11:16:37;;;;;;;5.05;0.68;;;;;;;17.87;60.19;99793.81;5142755;27;20054;-54
2021/07/29 11:19:05;;;;;;;2.40;0.70;;;;;;;17.88;58.88;99800.00;5142556;27;20060;-52
2021/07/29 11:21:32;;;;;;;3.80;0.85;;;;;;;17.91;59.96;99794.22;5142106;27;20381;-53
2021/07/29 11:23:59;;;;;;;4.10;0.70;;;;;;;17.93;59.83;99797.53;5136495;27;20030;-52
2021/07/29 11:26:25;;;;;;;2.72;0.82;;;;;;;17.99;59.77;99791.34;5134131;27;20035;-53
2021/07/29 11:29:07;;;;;;;3.53;0.70;;;;;;;18.01;59.40;99796.47;5133013;27;20027;-53
2021/07/29 11:31:35;;;;;;;6.55;0.95;;;;;;;18.02;59.37;99790.09;5131489;27;20046;-54
2021/07/29 11:34:00;;;;;;;4.38;0.70;;;;;;;18.03;58.77;99792.53;5131498;27;20123;-52
2021/07/29 11:36:28;;;;;;;7.22;0.85;;;;;;;18.04;58.03;99796.06;5132625;27;20454;-53
2021/07/29 11:39:04;;;;;;;3.25;0.60;;;;;;;18.04;57.55;99798.72;5129428;27;20062;-52